createdAt,value
2023-08-07T00:00:35.281Z,808.72
2023-08-07T00:03:03.652Z,774.83
2023-08-07T00:05:31.351Z,778.10
2023-08-07T00:07:58.599Z,777.70
2023-08-07T00:10:25.690Z,780.15
2023-08-07T00:12:52.810Z,772.80
2023-08-07T00:15:20.405Z,775.30
2023-08-07T00:17:47.681Z,771.42
2023-08-07T00:20:14.927Z,776.05
2023-08-07T00:22:42.094Z,774.53
2023-08-07T00:25:18.726Z,784.35
2023-08-07T00:27:48.009Z,779.60
2023-08-07T00:30:18.145Z,777.35
2023-08-07T00:32:45.436Z,775.28
2023-08-07T00:35:14.891Z,772.60
2023-08-07T00:37:42.084Z,773.30
2023-08-07T00:40:09.629Z,765.15
2023-08-07T00:42:36.782Z,776.35
2023-08-07T00:45:04.062Z,771.65
2023-08-07T00:47:31.416Z,772.15
2023-08-07T00:49:59.976Z,775.83
2023-08-07T00:52:27.156Z,773.28
2023-08-07T00:54:54.247Z,775.15
2023-08-07T00:57:23.954Z,766.85
2023-08-07T00:59:51.211Z,773.17
2023-08-07T01:02:18.512Z,772.70
2023-08-07T01:04:46.181Z,769.20
2023-08-07T01:07:34.128Z,775.40
2023-08-07T01:10:04.615Z,784.47
2023-08-07T01:12:32.439Z,841.30
2023-08-07T01:15:19.325Z,771.83
2023-08-07T01:17:46.664Z,774.75
2023-08-07T01:20:13.837Z,775.17
2023-08-07T01:22:44.205Z,776.03
2023-08-07T01:25:13.591Z,842.10
2023-08-07T01:27:46.538Z,775.17
2023-08-07T01:30:34.761Z,772.28
2023-08-07T01:33:05.059Z,775.50
2023-08-07T01:35:35.283Z,781.80
2023-08-07T01:38:03.448Z,814.95
2023-08-07T01:40:43.918Z,775.25
2023-08-07T01:43:11.089Z,774.90
2023-08-07T01:45:38.567Z,772.63
2023-08-07T01:48:05.902Z,776.97
2023-08-07T01:50:33.067Z,781.08
2023-08-07T01:53:00.362Z,777.00
2023-08-07T01:55:30.333Z,773.78
2023-08-07T01:57:57.494Z,773.03
2023-08-07T02:00:28.040Z,777.08
2023-08-07T02:02:55.238Z,774.10
2023-08-07T02:05:22.480Z,774.75
2023-08-07T02:07:49.661Z,776.42
2023-08-07T02:10:16.938Z,777.30
2023-08-07T02:12:44.115Z,786.30
2023-08-07T02:15:11.389Z,810.72
2023-08-07T02:17:42.744Z,795.75
2023-08-07T02:20:10.289Z,772.70
2023-08-07T02:22:39.643Z,773.88
2023-08-07T02:25:07.643Z,772.85
2023-08-07T02:27:34.789Z,772.38
2023-08-07T02:30:03.896Z,777.92
2023-08-07T02:32:31.425Z,774.77
2023-08-07T02:34:58.624Z,776.92
2023-08-07T02:37:25.928Z,788.85
2023-08-07T02:39:54.594Z,777.95
2023-08-07T02:42:21.872Z,801.72
2023-08-07T02:44:49.003Z,776.25
2023-08-07T02:47:16.117Z,780.35
2023-08-07T02:49:43.286Z,781.70
2023-08-07T02:52:10.420Z,788.75
2023-08-07T02:54:40.577Z,785.40
2023-08-07T02:57:07.754Z,791.67
2023-08-07T02:59:34.931Z,786.78
2023-08-07T03:02:02.108Z,780.60
2023-08-07T03:04:29.224Z,772.83
2023-08-07T03:06:56.557Z,775.13
2023-08-07T03:09:28.949Z,778.50
2023-08-07T03:12:04.205Z,782.20
2023-08-07T03:14:32.426Z,782.65
2023-08-07T03:16:59.591Z,775.42
2023-08-07T03:19:26.751Z,773.17
2023-08-07T03:21:57.081Z,777.50
2023-08-07T03:24:24.193Z,777.38
2023-08-07T03:26:51.417Z,778.28
2023-08-07T03:29:18.655Z,781.53
2023-08-07T03:31:48.375Z,780.58
2023-08-07T03:34:15.502Z,778.60
2023-08-07T03:36:42.601Z,801.10
2023-08-07T03:39:11.439Z,772.45
2023-08-07T03:41:41.198Z,770.15
2023-08-07T03:44:08.434Z,782.78
2023-08-07T03:46:35.719Z,774.85
2023-08-07T03:49:02.898Z,799.63
2023-08-07T03:51:31.729Z,781.60
2023-08-07T03:53:58.887Z,777.88
2023-08-07T03:56:26.064Z,782.60
2023-08-07T03:58:53.295Z,788.13
2023-08-07T04:01:20.525Z,788.17
2023-08-07T04:03:50.902Z,783.67
2023-08-07T04:06:18.112Z,780.88
2023-08-07T04:08:47.150Z,786.80
2023-08-07T04:11:14.377Z,779.53
2023-08-07T04:13:41.510Z,779.20
2023-08-07T04:16:08.784Z,790.65
2023-08-07T04:18:36.080Z,786.13
2023-08-07T04:21:28.662Z,787.75
2023-08-07T04:23:55.857Z,789.28
2023-08-07T04:26:23.112Z,785.58
2023-08-07T04:28:50.334Z,789.10
2023-08-07T04:31:17.537Z,788.30
2023-08-07T04:33:47.574Z,794.88
2023-08-07T04:36:15.042Z,787.05
2023-08-07T04:38:42.197Z,787.53
2023-08-07T04:41:14.661Z,789.30
2023-08-07T04:43:43.843Z,789.00
2023-08-07T04:46:19.906Z,789.20
2023-08-07T04:48:48.170Z,796.25
2023-08-07T04:51:16.513Z,792.38
2023-08-07T04:53:43.776Z,790.65
2023-08-07T04:56:10.946Z,796.20
2023-08-07T04:58:39.176Z,798.88
2023-08-07T05:01:07.697Z,796.53
2023-08-07T05:03:35.009Z,788.72
2023-08-07T05:06:02.710Z,796.20
2023-08-07T05:08:30.313Z,801.42
2023-08-07T05:10:57.427Z,800.58
2023-08-07T05:13:24.762Z,803.03
2023-08-07T05:15:51.836Z,807.92
2023-08-07T05:18:19.961Z,803.95
2023-08-07T05:20:47.193Z,805.70
2023-08-07T05:23:14.307Z,802.17
2023-08-07T05:25:43.039Z,804.22
2023-08-07T05:28:10.137Z,807.20
2023-08-07T05:30:37.525Z,803.13
2023-08-07T05:33:04.729Z,809.00
2023-08-07T05:35:31.968Z,804.60
2023-08-07T05:37:59.259Z,806.92
2023-08-07T05:40:32.966Z,803.35
2023-08-07T05:43:00.044Z,806.38
2023-08-07T05:45:30.022Z,805.93
2023-08-07T05:47:59.778Z,801.53
2023-08-07T05:50:26.897Z,810.10
2023-08-07T05:52:54.087Z,807.40
2023-08-07T05:55:21.329Z,805.83
2023-08-07T05:57:48.475Z,808.30
2023-08-07T06:00:20.417Z,813.03
2023-08-07T06:02:56.621Z,815.60
2023-08-07T06:05:23.713Z,812.97
2023-08-07T06:07:50.881Z,815.38
2023-08-07T06:10:18.124Z,810.95
2023-08-07T06:12:45.302Z,820.43
2023-08-07T06:15:12.522Z,816.47
2023-08-07T06:17:40.455Z,823.07
2023-08-07T06:20:12.494Z,816.00
2023-08-07T06:22:42.481Z,809.63
2023-08-07T06:25:09.979Z,806.00
2023-08-07T06:27:37.079Z,807.63
2023-08-07T06:30:04.417Z,804.88
2023-08-07T06:32:36.800Z,805.70
2023-08-07T06:35:05.411Z,810.13
2023-08-07T06:37:38.399Z,805.95
2023-08-07T06:40:06.252Z,804.90
2023-08-07T06:42:33.421Z,802.95
2023-08-07T06:45:00.661Z,798.93
2023-08-07T06:47:30.146Z,801.25
2023-08-07T06:49:58.503Z,803.05
2023-08-07T06:52:25.613Z,803.72
2023-08-07T06:54:53.576Z,803.45
2023-08-07T06:57:20.689Z,800.17
2023-08-07T06:59:47.801Z,805.53
2023-08-07T07:02:15.200Z,808.77
2023-08-07T07:04:42.312Z,807.67
2023-08-07T07:07:09.475Z,810.67
2023-08-07T07:09:39.603Z,824.33
2023-08-07T07:12:06.901Z,821.75
2023-08-07T07:14:35.088Z,823.72
2023-08-07T07:17:02.281Z,826.38
2023-08-07T07:19:29.380Z,829.05
2023-08-07T07:21:56.772Z,834.63
2023-08-07T07:24:24.753Z,838.50
2023-08-07T07:26:54.647Z,842.70
2023-08-07T07:29:22.541Z,843.63
2023-08-07T07:31:49.707Z,845.60
2023-08-07T07:34:16.873Z,847.05
2023-08-07T07:36:44.050Z,851.90
2023-08-07T07:39:14.265Z,850.55
2023-08-07T07:41:41.490Z,843.90
2023-08-07T07:44:11.674Z,845.72
2023-08-07T07:46:38.829Z,841.75
2023-08-07T07:49:06.090Z,849.15
2023-08-07T07:51:33.631Z,841.70
2023-08-07T07:54:13.722Z,849.15
2023-08-07T07:56:41.976Z,849.05
2023-08-07T07:59:09.505Z,853.78
2023-08-07T08:01:37.053Z,853.17
2023-08-07T08:04:04.225Z,850.97
2023-08-07T08:06:34.623Z,856.47
2023-08-07T08:09:05.279Z,861.60
2023-08-07T08:11:32.961Z,862.05
2023-08-07T08:14:00.035Z,863.58
2023-08-07T08:16:27.165Z,861.22
2023-08-07T08:18:54.368Z,859.20
2023-08-07T08:21:21.470Z,859.80
2023-08-07T08:23:53.733Z,857.17
2023-08-07T08:26:20.933Z,858.58
2023-08-07T08:28:51.112Z,859.25
2023-08-07T08:31:25.467Z,857.27
2023-08-07T08:33:58.686Z,852.33
2023-08-07T08:36:26.428Z,848.35
2023-08-07T08:38:53.911Z,850.17
2023-08-07T08:41:24.560Z,843.70
2023-08-07T08:43:56.008Z,846.33
2023-08-07T08:46:35.401Z,855.10
2023-08-07T08:49:16.144Z,853.72
2023-08-07T08:51:46.085Z,854.08
2023-08-07T08:54:13.481Z,854.35
2023-08-07T08:56:43.891Z,851.35
2023-08-07T08:59:18.179Z,852.03
2023-08-07T09:01:45.886Z,846.63
2023-08-07T09:04:13.117Z,835.55
2023-08-07T09:06:42.638Z,850.17
2023-08-07T09:09:15.573Z,859.58
2023-08-07T09:11:44.602Z,856.00
2023-08-07T09:14:14.131Z,857.27
2023-08-07T09:16:41.941Z,858.80
2023-08-07T09:19:12.149Z,851.05
2023-08-07T09:21:39.449Z,851.88
2023-08-07T09:24:06.807Z,849.10
2023-08-07T09:26:37.548Z,843.17
2023-08-07T09:29:04.848Z,831.08
2023-08-07T09:31:32.088Z,829.00
2023-08-07T09:34:06.257Z,837.50
2023-08-07T09:36:41.846Z,827.35
2023-08-07T09:39:09.140Z,815.13
2023-08-07T09:41:45.479Z,813.35
2023-08-07T09:44:36.320Z,823.45
2023-08-07T09:47:16.610Z,843.00
2023-08-07T09:49:44.528Z,813.85
2023-08-07T09:52:27.196Z,838.70
2023-08-07T09:55:01.119Z,840.28
2023-08-07T09:57:28.370Z,842.50
2023-08-07T10:00:12.652Z,840.53
2023-08-07T10:02:46.202Z,832.67
2023-08-07T10:05:14.022Z,836.47
2023-08-07T10:07:41.796Z,848.97
2023-08-07T10:10:11.656Z,851.33
2023-08-07T10:12:40.026Z,857.22
2023-08-07T10:15:07.603Z,856.95
2023-08-07T10:17:37.953Z,852.90
2023-08-07T10:20:06.160Z,853.35
2023-08-07T10:22:34.129Z,854.33
2023-08-07T10:25:06.568Z,842.15
2023-08-07T10:27:36.187Z,865.13
2023-08-07T10:30:04.175Z,867.20
2023-08-07T10:32:32.064Z,871.50
2023-08-07T10:34:59.199Z,875.50
2023-08-07T10:37:45.950Z,879.20
2023-08-07T10:40:14.179Z,888.40
2023-08-07T10:42:53.874Z,896.50
2023-08-07T10:45:24.291Z,902.63
2023-08-07T10:48:00.539Z,910.50
2023-08-07T10:50:34.184Z,902.17
2023-08-07T10:53:04.980Z,905.00
2023-08-07T10:55:45.848Z,892.47
2023-08-07T10:58:31.153Z,901.53
2023-08-07T11:01:18.611Z,893.13
2023-08-07T11:03:45.794Z,898.10
2023-08-07T11:06:15.385Z,883.13
2023-08-07T11:08:42.524Z,883.20
2023-08-07T11:11:10.041Z,888.50
2023-08-07T11:13:39.950Z,880.70
2023-08-07T11:16:07.494Z,884.85
2023-08-07T11:18:36.737Z,886.25
2023-08-07T11:21:04.080Z,890.03
2023-08-07T11:23:31.239Z,891.05
2023-08-07T11:25:58.451Z,893.03
2023-08-07T11:28:25.846Z,899.17
2023-08-07T11:30:56.677Z,904.78
2023-08-07T11:33:25.511Z,912.83
2023-08-07T11:35:52.759Z,918.83
2023-08-07T11:38:36.180Z,922.90
2023-08-07T11:41:04.086Z,923.50
2023-08-07T11:43:34.938Z,923.72
2023-08-07T11:46:09.072Z,921.85
2023-08-07T11:48:37.708Z,919.63
2023-08-07T11:51:05.309Z,919.60
2023-08-07T11:53:36.880Z,913.47
2023-08-07T11:56:05.283Z,911.95
2023-08-07T11:58:37.484Z,907.72
2023-08-07T12:01:11.792Z,905.85
2023-08-07T12:03:40.904Z,899.88
2023-08-07T12:06:08.655Z,892.58
2023-08-07T12:08:36.868Z,891.55
2023-08-07T12:11:05.408Z,893.05
2023-08-07T12:13:33.897Z,895.95
2023-08-07T12:16:01.076Z,899.83
2023-08-07T12:18:29.090Z,898.10
2023-08-07T12:21:01.239Z,902.70
2023-08-07T12:23:28.442Z,904.80
2023-08-07T12:25:55.753Z,904.63
2023-08-07T12:28:22.896Z,909.95
2023-08-07T12:30:50.521Z,899.55
2023-08-07T12:33:17.656Z,905.30
2023-08-07T12:35:45.060Z,923.88
2023-08-07T12:38:14.967Z,930.60
2023-08-07T12:40:44.387Z,930.17
2023-08-07T12:43:14.520Z,932.28
2023-08-07T12:48:12.004Z,921.08
2023-08-07T12:50:39.445Z,918.75
2023-08-07T12:53:06.678Z,909.97
2023-08-07T12:55:33.945Z,911.47
2023-08-07T12:58:01.629Z,909.20
2023-08-07T13:00:29.376Z,904.45
2023-08-07T13:02:57.244Z,913.78
2023-08-07T13:05:25.237Z,907.17
2023-08-07T13:07:59.848Z,911.10
2023-08-07T13:10:32.950Z,913.03
2023-08-07T13:13:06.872Z,919.77
2023-08-07T13:15:34.819Z,927.30
2023-08-07T13:18:02.667Z,931.08
2023-08-07T13:20:34.486Z,936.95
2023-08-07T13:23:02.645Z,943.83
2023-08-07T13:25:29.980Z,955.83
2023-08-07T13:27:57.217Z,954.33
2023-08-07T13:30:24.313Z,952.10
2023-08-07T13:32:51.842Z,948.35
2023-08-07T13:35:21.729Z,938.33
2023-08-07T13:37:48.865Z,925.88
2023-08-07T13:40:19.590Z,917.13
2023-08-07T13:42:47.921Z,918.33
2023-08-07T13:45:15.018Z,916.97
2023-08-07T13:47:42.156Z,909.78
2023-08-07T13:50:13.810Z,920.22
2023-08-07T13:52:44.240Z,929.50
2023-08-07T13:55:11.409Z,950.33
2023-08-07T13:57:38.741Z,962.30
2023-08-07T14:00:09.437Z,955.93
2023-08-07T14:02:39.444Z,957.47
2023-08-07T14:05:10.583Z,962.45
2023-08-07T14:07:39.780Z,952.53
2023-08-07T14:10:07.229Z,952.77
2023-08-07T14:12:34.368Z,962.13
2023-08-07T14:15:01.536Z,957.35
2023-08-07T14:17:28.690Z,961.83
2023-08-07T14:19:55.876Z,962.97
2023-08-07T14:22:23.053Z,958.15
2023-08-07T14:24:50.228Z,968.13
2023-08-07T14:27:17.316Z,975.95
2023-08-07T14:29:44.480Z,973.20
2023-08-07T14:32:11.673Z,973.17
2023-08-07T14:34:38.837Z,986.88
2023-08-07T14:37:06.504Z,989.85
2023-08-07T14:39:33.656Z,991.05
2023-08-07T14:42:00.949Z,989.63
2023-08-07T14:44:30.417Z,985.70
2023-08-07T14:46:57.737Z,992.25
2023-08-07T14:49:24.863Z,988.78
2023-08-07T14:51:52.038Z,992.53
2023-08-07T14:54:22.065Z,986.80
2023-08-07T14:56:49.175Z,976.53
2023-08-07T14:59:16.371Z,967.17
2023-08-07T15:01:46.528Z,967.45
2023-08-07T15:04:15.101Z,938.00
2023-08-07T15:06:43.418Z,968.58
2023-08-07T15:09:10.811Z,979.80
2023-08-07T15:11:39.651Z,985.55
2023-08-07T15:14:08.656Z,988.90
2023-08-07T15:16:36.757Z,987.33
2023-08-07T15:19:04.532Z,969.60
2023-08-07T15:21:32.293Z,965.28
2023-08-07T15:23:59.581Z,951.45
2023-08-07T15:26:27.006Z,952.13
2023-08-07T15:28:54.131Z,949.28
2023-08-07T15:31:21.234Z,961.78
2023-08-07T15:33:50.384Z,988.72
2023-08-07T15:36:17.575Z,1000.40
2023-08-07T15:38:44.708Z,1020.88
2023-08-07T15:41:15.189Z,1027.57
2023-08-07T15:43:42.359Z,1023.40
2023-08-07T15:46:09.693Z,1037.75
2023-08-07T15:48:36.991Z,1038.15
2023-08-07T15:51:04.423Z,1039.18
2023-08-07T15:53:31.588Z,1037.75
2023-08-07T15:56:01.837Z,1022.80
2023-08-07T15:58:29.207Z,1028.13
2023-08-07T16:00:56.648Z,1018.58
2023-08-07T16:03:24.265Z,1025.60
2023-08-07T16:05:51.448Z,993.70
2023-08-07T16:08:18.733Z,987.70
2023-08-07T16:10:45.911Z,982.08
2023-08-07T16:13:14.966Z,970.63
2023-08-07T16:15:45.512Z,962.65
2023-08-07T16:18:12.833Z,957.85
2023-08-07T16:20:40.260Z,955.05
2023-08-07T16:23:08.468Z,951.35
2023-08-07T16:25:35.656Z,950.55
2023-08-07T16:28:04.661Z,949.10
2023-08-07T16:30:31.968Z,935.58
2023-08-07T16:32:59.124Z,945.25
2023-08-07T16:35:26.373Z,954.35
2023-08-07T16:40:36.254Z,960.20
2023-08-07T16:43:04.184Z,959.42
2023-08-07T16:45:31.410Z,960.57
2023-08-07T16:47:58.994Z,942.38
2023-08-07T16:50:28.158Z,939.92
2023-08-07T16:53:00.706Z,933.42
2023-08-07T16:55:30.662Z,930.50
2023-08-07T16:57:57.921Z,934.28
2023-08-07T17:00:27.653Z,951.07
2023-08-07T17:02:57.820Z,927.00
2023-08-07T17:05:25.935Z,949.00
2023-08-07T17:07:53.187Z,976.22
2023-08-07T17:10:20.352Z,988.77
2023-08-07T17:12:50.734Z,991.63
2023-08-07T17:15:18.018Z,943.75
2023-08-07T17:17:45.309Z,951.58
2023-08-07T17:20:13.130Z,942.67
2023-08-07T17:22:40.505Z,939.13
2023-08-07T17:25:07.830Z,938.80
2023-08-07T17:27:34.933Z,938.83
2023-08-07T17:30:02.038Z,933.13
2023-08-07T17:32:29.206Z,946.95
2023-08-07T17:34:58.448Z,953.92
2023-08-07T17:37:25.709Z,940.70
2023-08-07T17:39:55.709Z,953.25
2023-08-07T17:42:22.837Z,947.72
2023-08-07T17:44:51.580Z,944.65
2023-08-07T17:47:18.726Z,975.53
2023-08-07T17:49:53.197Z,937.10
2023-08-07T17:52:21.599Z,934.42
2023-08-07T17:54:54.834Z,937.55
2023-08-07T17:57:22.080Z,933.17
2023-08-07T17:59:50.375Z,924.28
2023-08-07T18:02:17.529Z,930.47
2023-08-07T18:04:44.775Z,930.13
2023-08-07T18:07:11.949Z,922.55
2023-08-07T18:09:39.215Z,923.65
2023-08-07T18:12:06.495Z,574.60
2023-08-07T18:14:34.409Z,923.92
2023-08-07T18:17:01.940Z,911.28
2023-08-07T18:19:29.457Z,931.45
2023-08-07T18:21:56.631Z,920.58
2023-08-07T18:24:26.694Z,915.83
2023-08-07T18:26:56.660Z,919.03
2023-08-07T18:29:24.371Z,919.75
2023-08-07T18:31:51.804Z,917.75
2023-08-07T18:34:19.040Z,918.05
2023-08-07T18:36:47.560Z,916.35
2023-08-07T18:39:17.172Z,913.38
2023-08-07T18:41:47.519Z,911.50
2023-08-07T18:44:14.775Z,909.83
2023-08-07T18:46:42.908Z,908.83
2023-08-07T18:49:10.332Z,905.75
2023-08-07T18:51:39.629Z,904.72
2023-08-07T18:54:07.076Z,902.40
2023-08-07T18:56:34.281Z,900.60
2023-08-07T18:59:04.770Z,900.15
2023-08-07T19:01:32.526Z,900.55
2023-08-07T19:03:59.788Z,896.38
2023-08-07T19:06:27.457Z,892.45
2023-08-07T19:08:54.645Z,892.10
2023-08-07T19:11:28.281Z,895.72
2023-08-07T19:13:58.138Z,894.05
2023-08-07T19:16:25.412Z,887.35
2023-08-07T19:18:55.143Z,886.22
2023-08-07T19:21:22.251Z,889.88
2023-08-07T19:23:52.354Z,887.38
2023-08-07T19:26:25.289Z,894.97
2023-08-07T19:28:53.988Z,898.60
2023-08-07T19:31:21.205Z,888.40
2023-08-07T19:33:48.461Z,888.80
2023-08-07T19:36:15.778Z,885.90
2023-08-07T19:38:42.963Z,891.55
2023-08-07T19:41:11.693Z,886.90
2023-08-07T19:43:38.822Z,882.90
2023-08-07T19:46:08.837Z,879.83
2023-08-07T19:48:38.230Z,877.42
2023-08-07T19:51:06.900Z,883.65
2023-08-07T19:53:34.033Z,881.40
2023-08-07T19:56:01.930Z,882.63
2023-08-07T19:58:29.131Z,883.58
2023-08-07T20:00:56.265Z,877.45
2023-08-07T20:03:23.502Z,885.20
2023-08-07T20:05:54.330Z,878.25
2023-08-07T20:08:21.434Z,871.60
2023-08-07T20:10:48.600Z,877.05
2023-08-07T20:13:16.108Z,869.95
2023-08-07T20:15:43.681Z,878.90
2023-08-07T20:18:10.897Z,877.40
2023-08-07T20:20:38.317Z,877.47
2023-08-07T20:23:05.568Z,863.35
2023-08-07T20:25:32.794Z,867.25
2023-08-07T20:27:59.908Z,862.28
2023-08-07T20:30:27.111Z,862.63
2023-08-07T20:32:54.440Z,858.75
2023-08-07T20:35:24.451Z,868.42
2023-08-07T20:37:52.635Z,882.95
2023-08-07T20:40:19.700Z,857.97
2023-08-07T20:42:46.944Z,813.97
2023-08-07T20:45:14.066Z,813.13
2023-08-07T20:47:41.276Z,807.38
2023-08-07T20:50:11.558Z,801.20
2023-08-07T20:52:38.704Z,802.83
2023-08-07T20:55:08.891Z,804.53
2023-08-07T20:57:36.219Z,802.13
2023-08-07T21:00:07.181Z,794.72
2023-08-07T21:02:34.436Z,822.53
2023-08-07T21:05:04.638Z,799.23
2023-08-07T21:07:34.562Z,803.90
2023-08-07T21:10:08.663Z,791.15
2023-08-07T21:12:36.443Z,826.20
2023-08-07T21:15:05.317Z,796.78
2023-08-07T21:17:32.742Z,800.20
2023-08-07T21:19:59.902Z,796.17
2023-08-07T21:22:27.098Z,788.85
2023-08-07T21:24:57.043Z,790.73
2023-08-07T21:27:26.944Z,792.05
2023-08-07T21:29:54.125Z,827.42
2023-08-07T21:32:21.225Z,854.10
2023-08-07T21:34:48.381Z,833.55
2023-08-07T21:37:18.089Z,867.72
2023-08-07T21:39:45.177Z,904.90
2023-08-07T21:42:12.355Z,918.47
2023-08-07T21:44:40.584Z,927.95
2023-08-07T21:47:08.180Z,912.10
2023-08-07T21:49:35.372Z,917.15
2023-08-07T21:52:02.987Z,928.40
2023-08-07T21:54:30.086Z,900.97
2023-08-07T21:56:57.213Z,889.90
2023-08-07T21:59:24.292Z,929.15
2023-08-07T22:01:54.106Z,898.30
2023-08-07T22:04:21.232Z,906.92
2023-08-07T22:06:48.378Z,896.83
2023-08-07T22:09:15.534Z,891.90
2023-08-07T22:11:42.628Z,888.60
2023-08-07T22:14:09.807Z,941.60
2023-08-07T22:16:39.996Z,861.35
2023-08-07T22:19:10.257Z,911.73
2023-08-07T22:21:41.006Z,915.78
2023-08-07T22:24:08.175Z,918.20
2023-08-07T22:26:35.322Z,785.75
2023-08-07T22:29:04.664Z,789.30
2023-08-07T22:31:31.826Z,781.53
2023-08-07T22:33:59.088Z,782.30
2023-08-07T22:36:26.278Z,865.95
2023-08-07T22:38:59.490Z,825.47
2023-08-07T22:41:26.733Z,787.45
2023-08-07T22:43:53.930Z,883.80
2023-08-07T22:46:21.118Z,816.28
2023-08-07T22:48:51.385Z,865.75
2023-08-07T22:51:18.503Z,831.97
2023-08-07T22:53:45.628Z,881.28
2023-08-07T22:56:12.766Z,860.07
2023-08-07T22:58:39.875Z,794.25
2023-08-07T23:01:07.204Z,793.27
2023-08-07T23:03:34.718Z,792.45
2023-08-07T23:06:01.910Z,835.03
2023-08-07T23:08:29.053Z,871.00
2023-08-07T23:11:06.485Z,884.45
2023-08-07T23:13:33.813Z,328.45
2023-08-07T23:16:00.983Z,338.27
2023-08-07T23:18:30.400Z,433.88
2023-08-07T23:20:57.524Z,896.85
2023-08-07T23:23:24.747Z,882.20
2023-08-07T23:25:51.948Z,822.80
2023-08-07T23:28:19.156Z,887.33
2023-08-07T23:30:46.500Z,848.92
2023-08-07T23:33:13.704Z,808.42
2023-08-07T23:35:40.826Z,804.83
2023-08-07T23:38:08.126Z,784.53
2023-08-07T23:40:38.572Z,798.20
2023-08-07T23:43:06.654Z,788.30
2023-08-07T23:45:33.822Z,764.42
2023-08-07T23:48:01.080Z,765.05
2023-08-07T23:50:28.429Z,767.35
2023-08-07T23:52:55.551Z,776.53
2023-08-07T23:55:22.706Z,775.80
2023-08-07T23:57:49.907Z,768.13
